sensor_id;sensor_type;location;lat;lon;timestamp;temperature;humidity
29939;DHT22;16799;50.844;5.304;2024-03-08T00:01:55;4.90;99.90
29939;DHT22;16799;50.844;5.304;2024-03-08T00:04:21;4.80;99.90
29939;DHT22;16799;50.844;5.304;2024-03-08T00:06:47;4.70;99.90
29939;DHT22;16799;50.844;5.304;2024-03-08T00:09:13;4.70;99.90
29939;DHT22;16799;50.844;5.304;2024-03-08T00:11:39;4.70;99.90
29939;DHT22;16799;50.844;5.304;2024-03-08T00:14:05;4.60;99.90
29939;DHT22;16799;50.844;5.304;2024-03-08T00:16:32;4.60;99.90
29939;DHT22;16799;50.844;5.304;2024-03-08T00:18:59;4.60;99.90
29939;DHT22;16799;50.844;5.304;2024-03-08T00:21:25;4.60;99.90
29939;DHT22;16799;50.844;5.304;2024-03-08T00:23:52;4.50;99.90
29939;DHT22;16799;50.844;5.304;2024-03-08T00:26:20;4.50;99.90
29939;DHT22;16799;50.844;5.304;2024-03-08T00:28:50;4.50;99.90
29939;DHT22;16799;50.844;5.304;2024-03-08T00:31:16;4.30;99.90
29939;DHT22;16799;50.844;5.304;2024-03-08T00:33:42;4.30;99.90
29939;DHT22;16799;50.844;5.304;2024-03-08T00:36:08;4.40;99.90
29939;DHT22;16799;50.844;5.304;2024-03-08T00:38:34;4.40;99.90
29939;DHT22;16799;50.844;5.304;2024-03-08T00:41:00;4.30;99.90
29939;DHT22;16799;50.844;5.304;2024-03-08T00:43:25;4.20;99.90
29939;DHT22;16799;50.844;5.304;2024-03-08T00:45:51;4.20;99.90
29939;DHT22;16799;50.844;5.304;2024-03-08T00:48:17;4.20;99.90
29939;DHT22;16799;50.844;5.304;2024-03-08T00:50:43;4.20;99.90
29939;DHT22;16799;50.844;5.304;2024-03-08T00:53:14;4.10;99.90
29939;DHT22;16799;50.844;5.304;2024-03-08T00:55:40;4.20;99.90
29939;DHT22;16799;50.844;5.304;2024-03-08T00:58:05;4.20;99.90
29939;DHT22;16799;50.844;5.304;2024-03-08T01:00:31;4.20;99.90
29939;DHT22;16799;50.844;5.304;2024-03-08T01:02:57;4.20;99.90
29939;DHT22;16799;50.844;5.304;2024-03-08T01:05:23;4.10;99.90
29939;DHT22;16799;50.844;5.304;2024-03-08T01:07:50;4.10;99.90
29939;DHT22;16799;50.844;5.304;2024-03-08T01:10:16;4.20;99.90
29939;DHT22;16799;50.844;5.304;2024-03-08T01:12:41;4.20;99.90
29939;DHT22;16799;50.844;5.304;2024-03-08T01:15:09;4.10;99.90
29939;DHT22;16799;50.844;5.304;2024-03-08T01:17:36;4.10;99.90
29939;DHT22;16799;50.844;5.304;2024-03-08T01:20:02;4.00;99.90
29939;DHT22;16799;50.844;5.304;2024-03-08T01:22:28;3.90;99.90
29939;DHT22;16799;50.844;5.304;2024-03-08T01:24:56;4.00;99.90
29939;DHT22;16799;50.844;5.304;2024-03-08T01:27:21;3.80;99.90
29939;DHT22;16799;50.844;5.304;2024-03-08T01:29:47;3.80;99.90
29939;DHT22;16799;50.844;5.304;2024-03-08T01:32:13;3.80;99.90
29939;DHT22;16799;50.844;5.304;2024-03-08T01:34:40;3.70;99.90
29939;DHT22;16799;50.844;5.304;2024-03-08T01:37:06;3.80;99.90
29939;DHT22;16799;50.844;5.304;2024-03-08T01:39:32;3.80;99.90
29939;DHT22;16799;50.844;5.304;2024-03-08T01:41:58;3.80;99.90
29939;DHT22;16799;50.844;5.304;2024-03-08T01:44:23;3.70;99.90
29939;DHT22;16799;50.844;5.304;2024-03-08T01:46:50;3.70;99.90
29939;DHT22;16799;50.844;5.304;2024-03-08T01:49:18;3.70;99.90
29939;DHT22;16799;50.844;5.304;2024-03-08T01:51:47;3.60;99.90
29939;DHT22;16799;50.844;5.304;2024-03-08T01:54:14;3.60;99.90
29939;DHT22;16799;50.844;5.304;2024-03-08T01:56:41;3.60;99.90
29939;DHT22;16799;50.844;5.304;2024-03-08T01:59:07;3.60;99.90
29939;DHT22;16799;50.844;5.304;2024-03-08T02:01:33;3.50;99.90
29939;DHT22;16799;50.844;5.304;2024-03-08T02:03:59;3.40;99.90
29939;DHT22;16799;50.844;5.304;2024-03-08T02:06:25;3.50;99.90
29939;DHT22;16799;50.844;5.304;2024-03-08T02:08:51;3.60;99.90
29939;DHT22;16799;50.844;5.304;2024-03-08T02:11:17;3.60;99.90
29939;DHT22;16799;50.844;5.304;2024-03-08T02:13:44;3.40;99.90
29939;DHT22;16799;50.844;5.304;2024-03-08T02:16:10;3.40;99.90
29939;DHT22;16799;50.844;5.304;2024-03-08T02:18:36;3.40;99.90
29939;DHT22;16799;50.844;5.304;2024-03-08T02:21:03;3.40;99.90
29939;DHT22;16799;50.844;5.304;2024-03-08T02:23:29;3.30;99.90
29939;DHT22;16799;50.844;5.304;2024-03-08T02:25:56;3.30;99.90
29939;DHT22;16799;50.844;5.304;2024-03-08T02:28:23;3.30;99.90
29939;DHT22;16799;50.844;5.304;2024-03-08T02:30:49;3.30;99.90
29939;DHT22;16799;50.844;5.304;2024-03-08T02:33:22;3.20;99.90
29939;DHT22;16799;50.844;5.304;2024-03-08T02:35:49;3.20;99.90
29939;DHT22;16799;50.844;5.304;2024-03-08T02:38:17;3.20;99.90
29939;DHT22;16799;50.844;5.304;2024-03-08T02:40:44;3.30;99.90
29939;DHT22;16799;50.844;5.304;2024-03-08T02:43:11;3.10;99.90
29939;DHT22;16799;50.844;5.304;2024-03-08T02:45:38;3.20;99.90
29939;DHT22;16799;50.844;5.304;2024-03-08T02:48:04;3.10;99.90
29939;DHT22;16799;50.844;5.304;2024-03-08T02:50:32;3.20;99.90
29939;DHT22;16799;50.844;5.304;2024-03-08T02:52:58;3.20;99.90
29939;DHT22;16799;50.844;5.304;2024-03-08T02:55:24;3.30;99.90
29939;DHT22;16799;50.844;5.304;2024-03-08T02:57:52;3.30;99.90
29939;DHT22;16799;50.844;5.304;2024-03-08T03:00:18;3.20;99.90
29939;DHT22;16799;50.844;5.304;2024-03-08T03:02:45;3.20;99.90
29939;DHT22;16799;50.844;5.304;2024-03-08T03:05:11;3.10;99.90
29939;DHT22;16799;50.844;5.304;2024-03-08T03:07:37;3.20;99.90
29939;DHT22;16799;50.844;5.304;2024-03-08T03:10:04;3.20;99.90
29939;DHT22;16799;50.844;5.304;2024-03-08T03:12:30;3.00;99.90
29939;DHT22;16799;50.844;5.304;2024-03-08T03:14:57;3.10;99.90
29939;DHT22;16799;50.844;5.304;2024-03-08T03:17:23;3.00;99.90
29939;DHT22;16799;50.844;5.304;2024-03-08T03:19:50;3.00;99.90
29939;DHT22;16799;50.844;5.304;2024-03-08T03:22:17;2.90;99.90
29939;DHT22;16799;50.844;5.304;2024-03-08T03:24:44;3.00;99.90
29939;DHT22;16799;50.844;5.304;2024-03-08T03:27:12;3.00;99.90
29939;DHT22;16799;50.844;5.304;2024-03-08T03:29:42;2.90;99.90
29939;DHT22;16799;50.844;5.304;2024-03-08T03:32:11;3.00;99.90
29939;DHT22;16799;50.844;5.304;2024-03-08T03:34:37;3.00;99.90
29939;DHT22;16799;50.844;5.304;2024-03-08T03:37:04;2.90;99.90
29939;DHT22;16799;50.844;5.304;2024-03-08T03:39:30;2.90;99.90
29939;DHT22;16799;50.844;5.304;2024-03-08T03:42:00;2.90;99.90
29939;DHT22;16799;50.844;5.304;2024-03-08T03:44:28;2.80;99.90
29939;DHT22;16799;50.844;5.304;2024-03-08T03:46:53;2.80;99.90
29939;DHT22;16799;50.844;5.304;2024-03-08T03:49:19;2.80;99.90
29939;DHT22;16799;50.844;5.304;2024-03-08T03:51:45;2.80;99.90
29939;DHT22;16799;50.844;5.304;2024-03-08T03:54:12;2.80;99.90
29939;DHT22;16799;50.844;5.304;2024-03-08T03:56:38;2.80;99.90
29939;DHT22;16799;50.844;5.304;2024-03-08T03:59:06;2.80;99.90
29939;DHT22;16799;50.844;5.304;2024-03-08T04:01:32;2.80;99.90
29939;DHT22;16799;50.844;5.304;2024-03-08T04:03:58;2.90;99.90
29939;DHT22;16799;50.844;5.304;2024-03-08T04:06:24;2.80;99.90
29939;DHT22;16799;50.844;5.304;2024-03-08T04:08:50;2.80;99.90
29939;DHT22;16799;50.844;5.304;2024-03-08T04:11:15;2.70;99.90
29939;DHT22;16799;50.844;5.304;2024-03-08T04:13:43;2.70;99.90
29939;DHT22;16799;50.844;5.304;2024-03-08T04:16:09;2.80;99.90
29939;DHT22;16799;50.844;5.304;2024-03-08T04:18:37;2.80;99.90
29939;DHT22;16799;50.844;5.304;2024-03-08T04:21:07;2.70;99.90
29939;DHT22;16799;50.844;5.304;2024-03-08T04:23:35;2.80;99.90
29939;DHT22;16799;50.844;5.304;2024-03-08T04:26:02;2.70;99.90
29939;DHT22;16799;50.844;5.304;2024-03-08T04:28:30;2.70;99.90
29939;DHT22;16799;50.844;5.304;2024-03-08T04:30:56;2.70;99.90
29939;DHT22;16799;50.844;5.304;2024-03-08T04:33:22;2.70;99.90
29939;DHT22;16799;50.844;5.304;2024-03-08T04:35:49;2.50;99.90
29939;DHT22;16799;50.844;5.304;2024-03-08T04:38:14;2.50;99.90
29939;DHT22;16799;50.844;5.304;2024-03-08T04:40:41;2.50;99.90
29939;DHT22;16799;50.844;5.304;2024-03-08T04:43:07;2.60;99.90
29939;DHT22;16799;50.844;5.304;2024-03-08T04:45:34;2.60;99.90
29939;DHT22;16799;50.844;5.304;2024-03-08T04:47:59;2.60;99.90
29939;DHT22;16799;50.844;5.304;2024-03-08T04:50:25;2.60;99.90
29939;DHT22;16799;50.844;5.304;2024-03-08T04:52:54;2.50;99.90
29939;DHT22;16799;50.844;5.304;2024-03-08T04:55:20;2.50;99.90
29939;DHT22;16799;50.844;5.304;2024-03-08T04:57:47;2.40;99.90
29939;DHT22;16799;50.844;5.304;2024-03-08T05:00:13;2.50;99.90
29939;DHT22;16799;50.844;5.304;2024-03-08T05:02:40;2.50;99.90
29939;DHT22;16799;50.844;5.304;2024-03-08T05:05:07;2.50;99.90
29939;DHT22;16799;50.844;5.304;2024-03-08T05:07:33;2.50;99.90
29939;DHT22;16799;50.844;5.304;2024-03-08T05:09:59;2.40;99.90
29939;DHT22;16799;50.844;5.304;2024-03-08T05:12:25;2.40;99.90
29939;DHT22;16799;50.844;5.304;2024-03-08T05:14:51;2.30;99.90
29939;DHT22;16799;50.844;5.304;2024-03-08T05:17:17;2.30;99.90
29939;DHT22;16799;50.844;5.304;2024-03-08T05:19:43;2.30;99.90
29939;DHT22;16799;50.844;5.304;2024-03-08T05:22:09;2.40;99.90
29939;DHT22;16799;50.844;5.304;2024-03-08T05:24:35;2.30;99.90
29939;DHT22;16799;50.844;5.304;2024-03-08T05:27:01;2.30;99.90
29939;DHT22;16799;50.844;5.304;2024-03-08T05:29:28;2.20;99.90
29939;DHT22;16799;50.844;5.304;2024-03-08T05:31:55;2.30;99.90
29939;DHT22;16799;50.844;5.304;2024-03-08T05:34:21;2.20;99.90
29939;DHT22;16799;50.844;5.304;2024-03-08T05:36:50;2.30;99.90
29939;DHT22;16799;50.844;5.304;2024-03-08T05:39:17;2.20;99.90
29939;DHT22;16799;50.844;5.304;2024-03-08T05:41:43;2.30;99.90
29939;DHT22;16799;50.844;5.304;2024-03-08T05:44:10;2.30;99.90
29939;DHT22;16799;50.844;5.304;2024-03-08T05:46:36;2.30;99.90
29939;DHT22;16799;50.844;5.304;2024-03-08T05:49:03;2.30;99.90
29939;DHT22;16799;50.844;5.304;2024-03-08T05:51:35;2.40;99.90
29939;DHT22;16799;50.844;5.304;2024-03-08T05:54:02;2.30;99.90
29939;DHT22;16799;50.844;5.304;2024-03-08T05:56:29;2.30;99.90
29939;DHT22;16799;50.844;5.304;2024-03-08T05:58:55;2.20;99.90
29939;DHT22;16799;50.844;5.304;2024-03-08T06:01:22;2.30;99.90
29939;DHT22;16799;50.844;5.304;2024-03-08T06:03:47;2.30;99.90
29939;DHT22;16799;50.844;5.304;2024-03-08T06:06:14;2.20;99.90
29939;DHT22;16799;50.844;5.304;2024-03-08T06:08:41;2.30;99.90
29939;DHT22;16799;50.844;5.304;2024-03-08T06:11:09;2.30;99.90
29939;DHT22;16799;50.844;5.304;2024-03-08T06:13:35;2.30;99.90
29939;DHT22;16799;50.844;5.304;2024-03-08T06:16:01;2.40;99.90
29939;DHT22;16799;50.844;5.304;2024-03-08T06:18:30;2.40;99.90
29939;DHT22;16799;50.844;5.304;2024-03-08T06:20:56;2.40;99.90
29939;DHT22;16799;50.844;5.304;2024-03-08T06:23:22;2.30;99.90
29939;DHT22;16799;50.844;5.304;2024-03-08T06:25:48;2.30;99.90
29939;DHT22;16799;50.844;5.304;2024-03-08T06:28:14;2.30;99.90
29939;DHT22;16799;50.844;5.304;2024-03-08T06:30:40;2.40;99.90
29939;DHT22;16799;50.844;5.304;2024-03-08T06:33:06;2.40;99.90
29939;DHT22;16799;50.844;5.304;2024-03-08T06:35:32;2.40;99.90
29939;DHT22;16799;50.844;5.304;2024-03-08T06:37:58;2.40;99.90
29939;DHT22;16799;50.844;5.304;2024-03-08T06:40:24;2.50;99.90
29939;DHT22;16799;50.844;5.304;2024-03-08T06:42:50;2.50;99.90
29939;DHT22;16799;50.844;5.304;2024-03-08T06:45:17;2.50;99.90
29939;DHT22;16799;50.844;5.304;2024-03-08T06:47:46;2.50;99.90
29939;DHT22;16799;50.844;5.304;2024-03-08T06:50:12;2.50;99.90
29939;DHT22;16799;50.844;5.304;2024-03-08T06:52:39;2.70;99.90
29939;DHT22;16799;50.844;5.304;2024-03-08T06:55:05;2.70;99.90
29939;DHT22;16799;50.844;5.304;2024-03-08T06:57:31;2.80;99.90
29939;DHT22;16799;50.844;5.304;2024-03-08T06:59:57;2.90;99.90
29939;DHT22;16799;50.844;5.304;2024-03-08T07:02:23;2.90;99.90
29939;DHT22;16799;50.844;5.304;2024-03-08T07:04:52;2.90;99.90
29939;DHT22;16799;50.844;5.304;2024-03-08T07:07:18;3.00;99.90
29939;DHT22;16799;50.844;5.304;2024-03-08T07:09:46;3.10;99.90
29939;DHT22;16799;50.844;5.304;2024-03-08T07:12:12;3.10;99.90
29939;DHT22;16799;50.844;5.304;2024-03-08T07:14:39;3.20;99.90
29939;DHT22;16799;50.844;5.304;2024-03-08T07:17:11;3.30;99.90
29939;DHT22;16799;50.844;5.304;2024-03-08T07:19:37;3.40;99.90
29939;DHT22;16799;50.844;5.304;2024-03-08T07:22:04;3.50;99.90
29939;DHT22;16799;50.844;5.304;2024-03-08T07:24:36;3.60;99.90
29939;DHT22;16799;50.844;5.304;2024-03-08T07:27:05;3.70;99.90
29939;DHT22;16799;50.844;5.304;2024-03-08T07:29:34;3.70;99.90
29939;DHT22;16799;50.844;5.304;2024-03-08T07:32:00;3.70;99.90
29939;DHT22;16799;50.844;5.304;2024-03-08T07:34:26;3.80;99.90
29939;DHT22;16799;50.844;5.304;2024-03-08T07:36:52;4.00;99.90
29939;DHT22;16799;50.844;5.304;2024-03-08T07:39:17;4.00;99.90
29939;DHT22;16799;50.844;5.304;2024-03-08T07:41:44;4.10;99.90
29939;DHT22;16799;50.844;5.304;2024-03-08T07:44:10;4.10;99.90
29939;DHT22;16799;50.844;5.304;2024-03-08T07:46:35;4.30;99.90
29939;DHT22;16799;50.844;5.304;2024-03-08T07:49:03;4.40;99.90
29939;DHT22;16799;50.844;5.304;2024-03-08T07:51:28;4.40;99.90
29939;DHT22;16799;50.844;5.304;2024-03-08T07:53:54;4.60;99.90
29939;DHT22;16799;50.844;5.304;2024-03-08T07:56:20;4.60;99.90
29939;DHT22;16799;50.844;5.304;2024-03-08T07:58:47;4.70;99.90
29939;DHT22;16799;50.844;5.304;2024-03-08T08:01:17;5.00;99.90
29939;DHT22;16799;50.844;5.304;2024-03-08T08:03:43;5.20;99.90
29939;DHT22;16799;50.844;5.304;2024-03-08T08:06:09;5.10;99.90
29939;DHT22;16799;50.844;5.304;2024-03-08T08:08:35;5.30;99.90
29939;DHT22;16799;50.844;5.304;2024-03-08T08:11:02;5.50;99.90
29939;DHT22;16799;50.844;5.304;2024-03-08T08:13:28;5.60;99.90
29939;DHT22;16799;50.844;5.304;2024-03-08T08:15:57;5.60;99.90
29939;DHT22;16799;50.844;5.304;2024-03-08T08:18:23;5.60;99.90
29939;DHT22;16799;50.844;5.304;2024-03-08T08:20:51;5.80;99.90
29939;DHT22;16799;50.844;5.304;2024-03-08T08:23:18;5.90;99.90
29939;DHT22;16799;50.844;5.304;2024-03-08T08:25:45;5.90;99.90
29939;DHT22;16799;50.844;5.304;2024-03-08T08:28:11;6.00;99.90
29939;DHT22;16799;50.844;5.304;2024-03-08T08:30:38;5.90;99.90
29939;DHT22;16799;50.844;5.304;2024-03-08T08:33:04;6.10;99.90
29939;DHT22;16799;50.844;5.304;2024-03-08T08:35:31;5.90;99.90
29939;DHT22;16799;50.844;5.304;2024-03-08T08:37:58;6.30;99.90
29939;DHT22;16799;50.844;5.304;2024-03-08T08:40:24;6.20;99.90
29939;DHT22;16799;50.844;5.304;2024-03-08T08:42:51;6.40;99.90
29939;DHT22;16799;50.844;5.304;2024-03-08T08:45:18;6.50;99.90
29939;DHT22;16799;50.844;5.304;2024-03-08T08:47:44;6.80;99.90
29939;DHT22;16799;50.844;5.304;2024-03-08T08:50:11;7.00;99.90
29939;DHT22;16799;50.844;5.304;2024-03-08T08:52:38;6.90;99.90
29939;DHT22;16799;50.844;5.304;2024-03-08T08:55:04;6.60;99.90
29939;DHT22;16799;50.844;5.304;2024-03-08T08:57:32;6.80;99.90
29939;DHT22;16799;50.844;5.304;2024-03-08T08:59:59;6.90;99.90
29939;DHT22;16799;50.844;5.304;2024-03-08T09:02:25;7.20;99.90
29939;DHT22;16799;50.844;5.304;2024-03-08T09:04:51;7.50;99.90
29939;DHT22;16799;50.844;5.304;2024-03-08T09:07:17;7.60;99.90
29939;DHT22;16799;50.844;5.304;2024-03-08T09:09:44;7.80;99.90
29939;DHT22;16799;50.844;5.304;2024-03-08T09:12:10;8.00;99.90
29939;DHT22;16799;50.844;5.304;2024-03-08T09:14:42;8.20;99.90
29939;DHT22;16799;50.844;5.304;2024-03-08T09:17:08;8.00;99.90
29939;DHT22;16799;50.844;5.304;2024-03-08T09:19:35;7.60;99.90
29939;DHT22;16799;50.844;5.304;2024-03-08T09:22:02;7.50;99.90
29939;DHT22;16799;50.844;5.304;2024-03-08T09:24:29;7.70;99.90
29939;DHT22;16799;50.844;5.304;2024-03-08T09:26:56;7.90;99.90
29939;DHT22;16799;50.844;5.304;2024-03-08T09:29:24;7.90;99.90
29939;DHT22;16799;50.844;5.304;2024-03-08T09:31:49;7.80;99.90
29939;DHT22;16799;50.844;5.304;2024-03-08T09:34:15;8.40;99.90
29939;DHT22;16799;50.844;5.304;2024-03-08T09:36:41;8.70;99.90
29939;DHT22;16799;50.844;5.304;2024-03-08T09:39:07;8.90;99.90
29939;DHT22;16799;50.844;5.304;2024-03-08T09:41:33;9.10;99.50
29939;DHT22;16799;50.844;5.304;2024-03-08T09:44:00;8.50;98.40
29939;DHT22;16799;50.844;5.304;2024-03-08T09:46:25;8.50;99.90
29939;DHT22;16799;50.844;5.304;2024-03-08T09:48:53;8.90;96.50
29939;DHT22;16799;50.844;5.304;2024-03-08T09:51:22;9.00;95.40
29939;DHT22;16799;50.844;5.304;2024-03-08T09:53:50;9.00;95.10
29939;DHT22;16799;50.844;5.304;2024-03-08T09:56:16;9.20;95.60
29939;DHT22;16799;50.844;5.304;2024-03-08T09:58:42;9.20;95.10
29939;DHT22;16799;50.844;5.304;2024-03-08T10:01:28;9.40;95.00
29939;DHT22;16799;50.844;5.304;2024-03-08T10:03:54;9.60;93.10
29939;DHT22;16799;50.844;5.304;2024-03-08T10:06:25;10.10;92.60
29939;DHT22;16799;50.844;5.304;2024-03-08T10:08:51;10.20;95.10
29939;DHT22;16799;50.844;5.304;2024-03-08T10:11:20;10.10;90.00
29939;DHT22;16799;50.844;5.304;2024-03-08T10:13:48;9.70;95.90
29939;DHT22;16799;50.844;5.304;2024-03-08T10:16:13;10.00;93.40
29939;DHT22;16799;50.844;5.304;2024-03-08T10:18:39;10.00;90.40
29939;DHT22;16799;50.844;5.304;2024-03-08T10:21:07;9.80;91.20
29939;DHT22;16799;50.844;5.304;2024-03-08T10:23:35;10.20;96.90
29939;DHT22;16799;50.844;5.304;2024-03-08T10:26:12;10.70;84.50
29939;DHT22;16799;50.844;5.304;2024-03-08T10:28:51;10.50;87.00
29939;DHT22;16799;50.844;5.304;2024-03-08T10:31:18;10.50;85.70
29939;DHT22;16799;50.844;5.304;2024-03-08T10:33:45;11.50;84.60
29939;DHT22;16799;50.844;5.304;2024-03-08T10:36:13;12.30;80.90
29939;DHT22;16799;50.844;5.304;2024-03-08T10:38:40;12.10;73.00
29939;DHT22;16799;50.844;5.304;2024-03-08T10:41:08;12.60;72.50
29939;DHT22;16799;50.844;5.304;2024-03-08T10:49:31;12.50;71.30
29939;DHT22;16799;50.844;5.304;2024-03-08T10:52:03;13.00;71.10
29939;DHT22;16799;50.844;5.304;2024-03-08T10:54:31;13.10;72.50
29939;DHT22;16799;50.844;5.304;2024-03-08T10:56:57;12.70;72.30
29939;DHT22;16799;50.844;5.304;2024-03-08T10:59:25;13.00;68.50
29939;DHT22;16799;50.844;5.304;2024-03-08T11:01:53;13.30;69.50
29939;DHT22;16799;50.844;5.304;2024-03-08T11:04:18;13.90;63.10
29939;DHT22;16799;50.844;5.304;2024-03-08T11:06:50;13.40;64.90
29939;DHT22;16799;50.844;5.304;2024-03-08T11:12:27;14.20;58.50
29939;DHT22;16799;50.844;5.304;2024-03-08T11:15:02;14.20;64.90
29939;DHT22;16799;50.844;5.304;2024-03-08T11:20:11;13.90;61.60
29939;DHT22;16799;50.844;5.304;2024-03-08T11:23:00;13.90;61.20
29939;DHT22;16799;50.844;5.304;2024-03-08T11:28:19;14.00;62.10
29939;DHT22;16799;50.844;5.304;2024-03-08T11:33:30;15.80;58.30
29939;DHT22;16799;50.844;5.304;2024-03-08T11:36:07;15.10;59.20
29939;DHT22;16799;50.844;5.304;2024-03-08T11:38:43;14.60;60.20
29939;DHT22;16799;50.844;5.304;2024-03-08T11:41:10;14.70;58.70
29939;DHT22;16799;50.844;5.304;2024-03-08T11:43:40;15.20;59.80
29939;DHT22;16799;50.844;5.304;2024-03-08T11:46:13;14.40;62.00
29939;DHT22;16799;50.844;5.304;2024-03-08T11:48:40;14.90;60.30
29939;DHT22;16799;50.844;5.304;2024-03-08T11:51:13;15.20;60.40
29939;DHT22;16799;50.844;5.304;2024-03-08T11:53:39;15.40;58.70
29939;DHT22;16799;50.844;5.304;2024-03-08T11:56:10;15.40;59.60
29939;DHT22;16799;50.844;5.304;2024-03-08T11:58:38;15.10;60.60
29939;DHT22;16799;50.844;5.304;2024-03-08T12:01:05;15.40;58.60
29939;DHT22;16799;50.844;5.304;2024-03-08T12:03:42;15.30;58.20
29939;DHT22;16799;50.844;5.304;2024-03-08T12:06:11;15.40;57.50
29939;DHT22;16799;50.844;5.304;2024-03-08T12:08:39;15.60;58.90
29939;DHT22;16799;50.844;5.304;2024-03-08T12:11:05;15.70;56.00
29939;DHT22;16799;50.844;5.304;2024-03-08T12:13:32;16.00;57.20
29939;DHT22;16799;50.844;5.304;2024-03-08T12:16:00;16.30;54.70
29939;DHT22;16799;50.844;5.304;2024-03-08T12:18:26;16.40;54.50
29939;DHT22;16799;50.844;5.304;2024-03-08T12:21:09;16.90;54.00
29939;DHT22;16799;50.844;5.304;2024-03-08T12:23:46;17.10;53.80
29939;DHT22;16799;50.844;5.304;2024-03-08T12:26:25;17.30;53.40
29939;DHT22;16799;50.844;5.304;2024-03-08T12:28:52;16.90;52.20
29939;DHT22;16799;50.844;5.304;2024-03-08T12:31:18;17.50;52.50
29939;DHT22;16799;50.844;5.304;2024-03-08T12:33:49;17.70;50.50
29939;DHT22;16799;50.844;5.304;2024-03-08T12:36:16;17.60;50.90
29939;DHT22;16799;50.844;5.304;2024-03-08T12:38:48;17.20;50.50
29939;DHT22;16799;50.844;5.304;2024-03-08T12:41:18;17.10;51.00
29939;DHT22;16799;50.844;5.304;2024-03-08T12:43:48;17.40;48.80
29939;DHT22;16799;50.844;5.304;2024-03-08T12:46:17;17.60;48.00
29939;DHT22;16799;50.844;5.304;2024-03-08T12:48:45;18.50;46.20
29939;DHT22;16799;50.844;5.304;2024-03-08T12:51:19;18.20;46.70
29939;DHT22;16799;50.844;5.304;2024-03-08T12:53:46;18.30;44.10
29939;DHT22;16799;50.844;5.304;2024-03-08T12:56:14;17.50;48.60
29939;DHT22;16799;50.844;5.304;2024-03-08T12:58:43;17.70;46.40
29939;DHT22;16799;50.844;5.304;2024-03-08T13:01:08;18.60;44.90
29939;DHT22;16799;50.844;5.304;2024-03-08T13:03:35;19.60;45.10
29939;DHT22;16799;50.844;5.304;2024-03-08T13:06:04;19.40;43.80
29939;DHT22;16799;50.844;5.304;2024-03-08T13:08:39;19.50;44.60
29939;DHT22;16799;50.844;5.304;2024-03-08T13:11:06;20.50;43.10
29939;DHT22;16799;50.844;5.304;2024-03-08T13:13:33;21.80;41.70
29939;DHT22;16799;50.844;5.304;2024-03-08T13:16:01;21.10;39.90
29939;DHT22;16799;50.844;5.304;2024-03-08T13:18:27;20.80;40.00
29939;DHT22;16799;50.844;5.304;2024-03-08T13:20:54;20.00;41.60
29939;DHT22;16799;50.844;5.304;2024-03-08T13:23:20;18.90;42.90
29939;DHT22;16799;50.844;5.304;2024-03-08T13:25:46;18.10;45.40
29939;DHT22;16799;50.844;5.304;2024-03-08T13:28:15;18.40;44.70
29939;DHT22;16799;50.844;5.304;2024-03-08T13:30:42;17.20;45.00
29939;DHT22;16799;50.844;5.304;2024-03-08T13:33:09;17.20;49.30
29939;DHT22;16799;50.844;5.304;2024-03-08T13:35:35;17.30;46.70
29939;DHT22;16799;50.844;5.304;2024-03-08T13:38:01;17.10;46.90
29939;DHT22;16799;50.844;5.304;2024-03-08T13:40:29;17.40;48.30
29939;DHT22;16799;50.844;5.304;2024-03-08T13:42:56;18.40;47.60
29939;DHT22;16799;50.844;5.304;2024-03-08T13:45:22;17.70;44.10
29939;DHT22;16799;50.844;5.304;2024-03-08T13:47:53;18.00;47.40
29939;DHT22;16799;50.844;5.304;2024-03-08T13:50:19;17.90;45.80
29939;DHT22;16799;50.844;5.304;2024-03-08T13:52:49;17.70;45.80
29939;DHT22;16799;50.844;5.304;2024-03-08T13:55:20;17.50;48.80
29939;DHT22;16799;50.844;5.304;2024-03-08T13:57:48;18.00;48.40
29939;DHT22;16799;50.844;5.304;2024-03-08T14:00:14;18.60;43.80
29939;DHT22;16799;50.844;5.304;2024-03-08T14:02:40;18.70;43.70
29939;DHT22;16799;50.844;5.304;2024-03-08T14:05:09;18.30;42.90
29939;DHT22;16799;50.844;5.304;2024-03-08T14:07:37;18.00;45.30
29939;DHT22;16799;50.844;5.304;2024-03-08T14:10:03;18.90;44.10
29939;DHT22;16799;50.844;5.304;2024-03-08T14:12:29;18.40;42.70
29939;DHT22;16799;50.844;5.304;2024-03-08T14:14:55;18.10;44.60
29939;DHT22;16799;50.844;5.304;2024-03-08T14:17:25;18.30;44.90
29939;DHT22;16799;50.844;5.304;2024-03-08T14:19:53;18.90;44.10
29939;DHT22;16799;50.844;5.304;2024-03-08T14:22:20;18.90;44.20
29939;DHT22;16799;50.844;5.304;2024-03-08T14:24:45;18.40;43.00
29939;DHT22;16799;50.844;5.304;2024-03-08T14:27:11;17.80;43.90
29939;DHT22;16799;50.844;5.304;2024-03-08T14:29:38;16.80;45.60
29939;DHT22;16799;50.844;5.304;2024-03-08T14:32:05;15.60;49.30
29939;DHT22;16799;50.844;5.304;2024-03-08T14:34:32;15.10;49.50
29939;DHT22;16799;50.844;5.304;2024-03-08T14:37:00;14.40;52.20
29939;DHT22;16799;50.844;5.304;2024-03-08T14:39:26;14.20;53.20
29939;DHT22;16799;50.844;5.304;2024-03-08T14:41:55;14.20;58.40
29939;DHT22;16799;50.844;5.304;2024-03-08T14:44:21;14.20;54.30
29939;DHT22;16799;50.844;5.304;2024-03-08T14:46:55;13.90;55.90
29939;DHT22;16799;50.844;5.304;2024-03-08T14:49:22;13.70;57.80
29939;DHT22;16799;50.844;5.304;2024-03-08T14:51:48;13.50;58.10
29939;DHT22;16799;50.844;5.304;2024-03-08T14:54:13;13.40;60.90
29939;DHT22;16799;50.844;5.304;2024-03-08T14:56:39;13.10;59.50
29939;DHT22;16799;50.844;5.304;2024-03-08T14:59:08;13.20;60.90
29939;DHT22;16799;50.844;5.304;2024-03-08T15:01:35;13.20;57.80
29939;DHT22;16799;50.844;5.304;2024-03-08T15:04:02;13.30;62.70
29939;DHT22;16799;50.844;5.304;2024-03-08T15:06:35;13.40;58.60
29939;DHT22;16799;50.844;5.304;2024-03-08T15:09:02;13.30;59.90
29939;DHT22;16799;50.844;5.304;2024-03-08T15:11:37;13.30;68.00
29939;DHT22;16799;50.844;5.304;2024-03-08T15:14:05;13.10;63.10
29939;DHT22;16799;50.844;5.304;2024-03-08T15:16:36;13.00;63.80
29939;DHT22;16799;50.844;5.304;2024-03-08T15:19:02;12.90;60.00
29939;DHT22;16799;50.844;5.304;2024-03-08T15:21:27;12.80;63.20
29939;DHT22;16799;50.844;5.304;2024-03-08T15:23:54;13.00;62.80
29939;DHT22;16799;50.844;5.304;2024-03-08T15:26:20;13.00;60.40
29939;DHT22;16799;50.844;5.304;2024-03-08T15:28:45;12.90;60.30
29939;DHT22;16799;50.844;5.304;2024-03-08T15:31:12;12.90;60.00
29939;DHT22;16799;50.844;5.304;2024-03-08T15:33:41;12.80;60.00
29939;DHT22;16799;50.844;5.304;2024-03-08T15:36:17;12.90;63.60
29939;DHT22;16799;50.844;5.304;2024-03-08T15:38:46;12.90;63.50
29939;DHT22;16799;50.844;5.304;2024-03-08T15:41:16;13.00;59.90
29939;DHT22;16799;50.844;5.304;2024-03-08T15:43:43;13.00;59.40
29939;DHT22;16799;50.844;5.304;2024-03-08T15:46:10;12.80;59.80
29939;DHT22;16799;50.844;5.304;2024-03-08T15:48:37;12.60;57.40
29939;DHT22;16799;50.844;5.304;2024-03-08T15:51:05;12.80;60.30
29939;DHT22;16799;50.844;5.304;2024-03-08T15:53:35;12.80;60.90
29939;DHT22;16799;50.844;5.304;2024-03-08T15:56:02;12.50;59.10
29939;DHT22;16799;50.844;5.304;2024-03-08T15:58:28;12.40;64.40